Flight Track Log - Related Links

Times and Time Zones

All times are in EDT time to prevent confusion due to time zone crossing. See the SWA1301 flight status page for this flight to view local times or setup timezone preferences in your user account.

Time Position Orientation Groundspeed Altitude Reporting Facility
EDT Latitude Longitude Course Direction KTS MPH feet Rate Location/Type
Sat 03:43:50 PM 40.8450 -81.5419 227° Southwest 219 252 4,400  Level Cleveland Center
Sat 03:44:51 PM 40.8194 -81.6392 251° West 286 329 7,800 3,171 Climbing Cleveland Center
Sat 03:45:53 PM 40.8183 -81.7444 269° West 287 330 10,900 2,710 Climbing Cleveland Center
Sat 03:46:55 PM 40.8275 -81.8725 275° West 346 398 13,400 2,565 Climbing Cleveland Center
Sat 03:47:57 PM 40.8353 -82.0056 274° West 357 411 16,200 2,661 Climbing Cleveland Center
Sat 03:48:00 PM 40.8433 -82.3017 276° West  Level FlightAware Approximate
Sat 03:48:59 PM 40.8444 -82.1703 274° West 377 434 18,900  Level Cleveland Center
Sat 03:50:01 PM 40.8531 -82.3172 274° West 392 451 21,300 2,195 Climbing Cleveland Center
Sat 03:51:02 PM 40.8619 -82.4683 274° West 403 464 23,400 1,902 Climbing Cleveland Center
Sat 03:52:04 PM 40.8728 -82.6219 275° West 410 472 25,200 1,694 Climbing Cleveland Center
Sat 03:53:06 PM 40.9078 -82.7792 286° West 434 499 26,900 1,645 Climbing Cleveland Center
Sat 03:54:08 PM 40.9397 -82.9361 285° West 437 503 28,600 1,452 Climbing Cleveland Center
Sat 03:55:10 PM 40.9717 -83.0994 285° West 449 517 29,900 1,597 Climbing Cleveland Center
Sat 03:56:12 PM 41.0081 -83.2744 285° West 464 534 31,900 1,935 Climbing Cleveland Center
Sat 03:57:14 PM 41.0411 -83.4344 285° West 460 529 33,900 1,790 Climbing Cleveland Center
Sat 03:58:16 PM 41.0719 -83.5892 285° West 440 506 35,600 1,306 Climbing Cleveland Center
Sat 03:59:18 PM 41.1017 -83.7436 284° West 435 501 36,600 1,065 Climbing Cleveland Center
Sat 04:00:20 PM 41.1328 -83.9072 284° West 434 499 37,800 677 Climbing Cleveland Center
Sat 04:01:22 PM 41.1692 -84.0911 285° West 432 497 38,000 97 Climbing Cleveland Center
Sat 04:02:24 PM 41.1994 -84.2450 285° West 432 497 38,000  Level Cleveland Center
Sat 04:03:26 PM 41.2281 -84.3972 284° West 430 495 38,000  Level Cleveland Center
Sat 04:04:28 PM 41.2567 -84.5503 284° West 430 495 38,000  Level Cleveland Center
Sat 04:05:30 PM 41.2853 -84.7006 284° West 426 490 38,000  Level Chicago Center
Sat 04:06:32 PM 41.3142 -84.8536 284° West 426 490 38,000  Level Chicago Center
Sat 04:07:33 PM 41.3281 -85.0069 277° West 422 486 38,000  Level Chicago Center
Sat 04:08:35 PM 41.3303 -85.1628 271° West 421 484 38,000  Level Chicago Center
Sat 04:09:37 PM 41.3122 -85.3481 263° West 417 480 38,000  Level Chicago Center
Sat 04:10:39 PM 41.2975 -85.5031 263° West 417 480 38,000  Level Chicago Center
Sat 04:11:40 PM 41.2847 -85.6592 264° West 419 482 38,000  Level Chicago Center
Sat 04:12:42 PM 41.2703 -85.8142 263° West 419 482 38,000  Level Chicago Center
Sat 04:13:44 PM 41.2569 -85.9697 264° West 420 483 38,000  Level Chicago Center
Sat 04:14:45 PM 41.2519 -86.1269 268° West 421 484 38,000  Level Chicago Center
Sat 04:15:47 PM 41.2525 -86.2850 270° West 423 487 38,000  Level Chicago Center
Sat 04:16:49 PM 41.2617 -86.4431 274° West 426 490 38,000  Level Chicago Center
Sat 04:17:50 PM 41.2703 -86.6031 274° West 430 495 38,000  Level Chicago Center
Sat 04:18:52 PM 41.2806 -86.7817 274° West 430 495 38,000  Level Chicago Center
Sat 04:19:54 PM 41.2892 -86.9378 274° West 427 491 38,000  Level Chicago Center
Sat 04:20:55 PM 41.2967 -87.0967 274° West 427 491 38,000  Level Chicago Center
Sat 04:21:57 PM 41.3047 -87.2511 274° West 422 486 38,000  Level Chicago Center
Sat 04:22:59 PM 41.3131 -87.4383 273° West 421 484 38,000  Level Chicago Center
Sat 04:24:00 PM 41.3211 -87.5961 274° West 424 488 38,000  Level Chicago Center
Sat 04:25:02 PM 41.3283 -87.7519 274° West 423 487 38,000  Level Chicago Center
Sat 04:26:04 PM 41.3347 -87.9092 273° West 423 487 38,000  Level Chicago Center
Sat 04:27:05 PM 41.3467 -88.0850 275° West 435 501 38,000  Level Chicago Center
Sat 04:28:07 PM 41.3514 -88.2364 272° West 431 496 38,000  Level Chicago Center
Sat 04:29:09 PM 41.3914 -88.3914 289° West 436 502 38,000  Level Chicago Center
Sat 04:30:10 PM 41.4275 -88.5464 287° West 437 503 38,000  Level Chicago Center
Sat 04:31:12 PM 41.4611 -88.7011 286° West 437 503 38,000  Level Chicago Center
Sat 04:32:14 PM 41.4931 -88.8578 285° West 437 503 38,000  Level Chicago Center
Sat 04:33:15 PM 41.5244 -89.0136 285° West 437 503 38,000  Level Chicago Center
Sat 04:34:17 PM 41.5639 -89.2003 286° West 437 503 38,000  Level Chicago Center
Sat 04:35:19 PM 41.5983 -89.3586 286° West 441 507 38,000  Level Chicago Center
Sat 04:36:21 PM 41.6256 -89.5167 283° West 441 507 38,000  Level Chicago Center
Sat 04:37:22 PM 41.6531 -89.6789 283° West 446 513 38,000  Level Chicago Center
Sat 04:38:24 PM 41.6731 -89.8408 279° West 446 513 38,000  Level Chicago Center
Sat 04:39:26 PM 41.6889 -90.0025 278° West 445 512 38,000  Level Chicago Center
Sat 04:40:27 PM 41.7017 -90.1647 276° West 445 512 38,000  Level Chicago Center
Sat 04:41:29 PM 41.7156 -90.3572 276° West 439 505 38,000  Level Chicago Center
Sat 04:42:31 PM 41.7253 -90.5164 275° West 434 499 38,000  Level Chicago Center
Sat 04:43:33 PM 41.7319 -90.6661 273° West 434 499 38,000  Level Chicago Center
Sat 04:44:34 PM 41.7400 -90.8244 274° West 433 498 38,000  Level Chicago Center
Sat 04:45:36 PM 41.7392 -91.0139 270° West 429 494 38,000  Level Chicago Center
Sat 04:46:38 PM 41.7369 -91.1733 269° West 428 493 38,000  Level Chicago Center
Sat 04:47:40 PM 41.7342 -91.3328 269° West 429 494 38,000  Level Chicago Center
Sat 04:49:43 PM 41.7264 -91.6483 268° West 425 489 38,000  Level Chicago Center
Sat 04:50:45 PM 41.7228 -91.8039 268° West 423 487 38,000  Level Chicago Center
Sat 04:51:47 PM 41.7192 -91.9847 269° West 411 473 38,000  Level Chicago Center
Sat 04:52:48 PM 41.7142 -92.1336 267° West 405 466 38,000  Level Chicago Center
Sat 04:53:50 PM 41.7103 -92.2814 268° West 400 460 38,000  Level Chicago Center
Sat 04:54:52 PM 41.7061 -92.4294 268° West 401 461 38,000  Level Chicago Center
Sat 04:55:54 PM 41.7019 -92.5764 268° West 401 461 38,000  Level Chicago Center
Sat 04:56:55 PM 41.6969 -92.7231 267° West 399 459 38,000  Level Chicago Center
Sat 04:57:57 PM 41.6908 -92.8867 267° West 398 458 38,000  Level Chicago Center
Sat 04:58:59 PM 41.6869 -93.0333 268° West 397 457 38,000  Level Minneapolis Center
Sat 05:00:01 PM 41.6817 -93.1764 267° West 394 453 38,000  Level Minneapolis Center
Sat 05:01:03 PM 41.6767 -93.3222 267° West 394 453 38,000  Level Minneapolis Center
Sat 05:02:04 PM 41.6742 -93.4969 269° West 394 453 38,000  Level Minneapolis Center
Sat 05:03:06 PM 41.7058 -93.6378 287° West 400 460 38,000  Level Minneapolis Center
Sat 05:04:08 PM 41.7383 -93.7789 287° West 400 460 38,000  Level Minneapolis Center
Sat 05:05:10 PM 41.7717 -93.9264 287° West 408 470 38,000  Level Minneapolis Center
Sat 05:06:11 PM 41.7658 -94.0744 267° West 401 461 38,000  Level Minneapolis Center
Sat 05:07:13 PM 41.7539 -94.2214 264° West 400 460 38,000  Level Minneapolis Center
Sat 05:08:15 PM 41.7417 -94.3978 265° West 398 458 38,000  Level Minneapolis Center
Sat 05:09:17 PM 41.7306 -94.5436 264° West 397 457 38,000  Level Minneapolis Center
Sat 05:10:19 PM 41.7194 -94.6903 264° West 397 457 38,000  Level Minneapolis Center
Sat 05:11:21 PM 41.7081 -94.8372 264° West 397 457 38,000  Level Minneapolis Center
Sat 05:12:22 PM 41.6964 -94.9864 264° West 398 458 38,000  Level Minneapolis Center
Sat 05:13:24 PM 41.6844 -95.1333 264° West 401 461 38,000  Level Minneapolis Center
Sat 05:14:26 PM 41.6719 -95.2825 264° West 401 461 38,000  Level Minneapolis Center
Sat 05:15:28 PM 41.6569 -95.4642 264° West 408 470 38,000  Level Minneapolis Center
Sat 05:16:30 PM 41.6447 -95.6117 264° West 405 466 38,000  Level Minneapolis Center
Sat 05:17:31 PM 41.6314 -95.7619 263° West 407 468 38,000  Level Minneapolis Center
Sat 05:18:33 PM 41.6175 -95.9142 263° West 408 470 38,000  Level Minneapolis Center
Sat 05:19:35 PM 41.6014 -96.0631 262° West 408 470 38,000  Level Minneapolis Center
Sat 05:20:37 PM 41.5689 -96.2042 253° West 398 458 38,000  Level Minneapolis Center
Sat 05:21:39 PM 41.5281 -96.3636 251° West 398 458 38,000  Level Minneapolis Center
Sat 05:22:40 PM 41.4917 -96.5028 251° West 399 459 38,000  Level Minneapolis Center
Sat 05:23:42 PM 41.4542 -96.6411 250° West 399 459 38,000  Level Minneapolis Center
Sat 05:24:44 PM 41.4156 -96.7786 250° West 399 459 38,000  Level Minneapolis Center
Sat 05:25:46 PM 41.3750 -96.9178 249° West 399 459 38,000  Level Minneapolis Center
Sat 05:26:48 PM 41.3278 -97.0875 250° West 405 466 38,000  Level Minneapolis Center
Sat 05:27:49 PM 41.2894 -97.2289 250° West 407 468 38,000  Level Minneapolis Center
Sat 05:28:51 PM 41.2622 -97.3753 256° West 407 468 38,000  Level Minneapolis Center
Sat 05:29:53 PM 41.2442 -97.5397 262° West 410 472 38,000  Level Minneapolis Center
Sat 05:30:55 PM 41.2242 -97.6906 260° West 411 473 38,000  Level Minneapolis Center
Sat 05:31:56 PM 41.2036 -97.8422 260° West 413 475 38,000  Level Minneapolis Center
Sat 05:32:58 PM 41.1822 -97.9961 260° West 418 481 38,000  Level Minneapolis Center
Sat 05:34:00 PM 41.1617 -98.1486 260° West 418 481 38,000  Level Minneapolis Center
Sat 05:35:01 PM 41.1411 -98.3033 260° West 420 483 38,000  Level Minneapolis Center
Sat 05:36:03 PM 41.1169 -98.4717 259° West 421 484 38,000  Level Minneapolis Center
Sat 05:37:05 PM 41.0950 -98.6211 259° West 418 481 38,000  Level Minneapolis Center
Sat 05:38:06 PM 41.0728 -98.7744 259° West 420 483 38,000  Level Minneapolis Center
Sat 05:39:08 PM 41.0494 -98.9308 259° West 428 493 38,000  Level Minneapolis Center
Sat 05:40:10 PM 41.0283 -99.0839 260° West 427 491 38,000  Level Minneapolis Center
Sat 05:40:43 PM 41.0153 -99.1733 259° West 426 490 38,000  Level Denver Center
Sat 05:41:45 PM 40.9928 -99.3267 259° West 426 490 38,000  Level Denver Center
Sat 05:42:47 PM 40.9694 -99.4800 259° West 426 490 38,000  Level Denver Center
Sat 05:43:48 PM 40.9422 -99.6642 259° West 426 490 38,000  Level Denver Center
Sat 05:44:50 PM 40.9192 -99.8144 259° West 422 486 38,000  Level Denver Center
Sat 05:45:51 PM 40.8961 -99.9664 259° West 416 479 38,000  Level Denver Center
Sat 05:46:53 PM 40.8739 -100.1067 258° West 412 474 38,000  Level Denver Center
Sat 05:47:54 PM 40.8475 -100.2706 258° West 411 473 38,000  Level Denver Center
Sat 05:48:56 PM 40.8258 -100.4100 258° West 408 470 38,000  Level Denver Center
Sat 05:49:57 PM 40.8036 -100.5511 258° West 408 470 38,000  Level Denver Center
Sat 05:50:59 PM 40.7744 -100.7167 257° West 411 473 38,000  Level Denver Center
Sat 05:52:01 PM 40.7508 -100.8656 258° West 415 478 38,000  Level Denver Center
Sat 05:53:02 PM 40.7289 -101.0050 258° West 407 468 38,000  Level Denver Center
Sat 05:54:04 PM 40.7017 -101.1667 258° West 406 467 38,000  Level Denver Center
Sat 05:55:05 PM 40.6769 -101.3058 257° West 406 467 38,000  Level Denver Center
Sat 05:56:07 PM 40.6533 -101.4450 257° West 406 467 38,000  Level Denver Center
Sat 05:57:08 PM 40.6250 -101.6064 257° West 406 467 38,000  Level Denver Center
Sat 05:58:10 PM 40.6006 -101.7400 256° West 396 456 38,000 -484 Level Denver Center
Sat 05:59:12 PM 40.5731 -101.8933 257° West 384 442 37,000 -927 Descending Denver Center
Sat 06:00:13 PM 40.5500 -102.0194 257° West 373 429 36,100 -927 Descending Denver Center
Sat 06:01:15 PM 40.5214 -102.1719 256° West 382 440 35,100 -976 Descending Denver Center
Sat 06:02:16 PM 40.4958 -102.3042 256° West 386 444 34,100 -927 Descending Denver Center
Sat 06:03:18 PM 40.4722 -102.4336 257° West 385 443 33,200 -1,016 Descending Denver Center
Sat 06:04:20 PM 40.4444 -102.5814 256° West 377 434 32,000 -585 Descending Denver Center
Sat 06:05:21 PM 40.4192 -102.7192 256° West 372 428 32,000  Level Denver Center
Sat 06:06:23 PM 40.3939 -102.8525 256° West 378 435 32,000  Level Denver Center
Sat 06:07:25 PM 40.3675 -102.9906 256° West 389 448 32,000  Level Denver Center
Sat 06:08:26 PM 40.3417 -103.1289 256° West 390 449 32,000 -878 Level Denver Center
Sat 06:09:28 PM 40.3142 -103.2667 255° West 391 450 30,200 -1,887 Descending Denver Center
Sat 06:10:30 PM 40.2875 -103.4008 255° West 385 443 28,100 -2,000 Descending Denver Center
Sat 06:11:31 PM 40.2636 -103.5317 257° West 373 429 26,100 -2,146 Descending Denver Center
Sat 06:12:33 PM 40.2342 -103.6806 256° West 357 411 23,700 -1,935 Descending Denver Center
Sat 06:13:35 PM 40.2092 -103.8003 255° West 345 397 22,100 -1,258 Descending Denver Center
Sat 06:14:37 PM 40.1717 -103.9150 247° West 346 398 21,100 -1,415 Descending Denver Center
Sat 06:15:38 PM 40.1183 -104.0311 239° Southwest 343 395 19,200 -1,805 Descending Denver Center
Sat 06:16:40 PM 40.0708 -104.1331 239° Southwest 332 382 17,400 -1,742 Descending Denver Center
Sat 06:17:42 PM 40.0244 -104.2328 239° Southwest 324 373 15,600 -1,756 Descending Denver Center
Sat 06:18:43 PM 39.9747 -104.3383 238° Southwest 322 371 13,800 -1,317 Descending Denver Center
Sat 06:19:45 PM 39.9306 -104.4342 239° Southwest 311 358 12,900 -1,306 Descending Denver Center
Sat 06:20:47 PM 39.8661 -104.5000 218° Southwest 312 359 11,100 -1,024 Descending Denver Center
Sat 06:21:48 PM 39.7797 -104.5014 181° South 282 325 10,800 -683 Descending Denver Center
Sat 06:22:50 PM 39.7094 -104.5033 181° South 255 293 9,700 -1,016 Descending Denver Center
Sat 06:23:52 PM 39.6528 -104.5328 202° Southwest 243 280 8,700 -829 Descending Denver Center
Sat 06:24:53 PM 39.6736 -104.5997 292° West 216 249 8,000 -634 Descending Denver Center
Sat 06:25:55 PM 39.7303 -104.6347 335° Northwest 214 246 7,400 -726 Descending Denver Center
Sat 06:26:57 PM 39.7772 -104.6422 353° North 173 199 6,500 -878 Descending Denver Center
Sat 06:27:58 PM 39.8233 -104.6419 360° North 160 184 5,600 -885 Descending Denver Center
Sat 06:29:00 PM 39.8500 -104.6667 North  Level FlightAware Approximate
Sat 06:36:00 PM 39.8617 -104.6732 North  Level Estimated
Sat 06:37:00 PM 39.8617 -104.6732 North  Level Estimated
Sat 06:38:00 PM 39.8617 -104.6732 North  Level Estimated
Sat 06:39:00 PM 39.8617 -104.6732 North  Level Estimated

Login

Don't have an account? Register now (free) for customized features, flight alerts, and more!